Time;durP1;ratioP1;P1;durP2;ratioP2;P2;SDS_P1;SDS_P2;PMS_P1;PMS_P2;Temp;Humidity;BMP_temperature;BMP_pressure;BME280_temperature;BME280_humidity;BME280_pressure;Samples;Min_cycle;Max_cycle;Signal;HPM_P1;HPM_P2
2022/06/01 00:00:19;;;;;;;2.63;1.90;;;21.00;44.30;20.20;100891.00;;;;5057416;28;20048;-66
2022/06/01 00:03:05;;;;;;;3.03;1.58;;;21.00;44.30;20.10;100895.00;;;;5063802;28;20071;-66
2022/06/01 00:05:53;;;;;;;1.42;1.33;;;21.00;44.40;20.10;100886.00;;;;5056932;28;20043;-66
2022/06/01 00:08:40;;;;;;;2.47;1.42;;;21.00;44.40;20.10;100891.00;;;;5063344;28;20509;-66
2022/06/01 00:11:26;;;;;;;2.08;1.30;;;21.00;44.40;20.10;100884.00;;;;5061265;28;20044;-66
2022/06/01 00:14:12;;;;;;;1.30;1.17;;;21.00;44.40;20.10;100884.00;;;;5059276;28;20055;-66
2022/06/01 00:16:58;;;;;;;1.40;1.30;;;21.00;44.40;20.10;100888.00;;;;5061744;28;20036;-66
2022/06/01 00:19:44;;;;;;;1.23;1.13;;;21.00;44.50;20.10;100890.00;;;;5054939;28;20033;-66
2022/06/01 00:22:30;;;;;;;1.60;1.30;;;21.00;44.60;20.10;100890.00;;;;5063594;28;20390;-66
2022/06/01 00:25:16;;;;;;;2.08;1.27;;;21.00;44.60;20.10;100881.00;;;;5050664;28;20036;-66
2022/06/01 00:28:02;;;;;;;4.57;1.70;;;21.00;44.60;20.10;100891.00;;;;5062166;28;20048;-66
2022/06/01 00:30:48;;;;;;;2.08;1.33;;;21.00;44.70;20.10;100887.00;;;;5057442;28;20382;-66
2022/06/01 00:33:34;;;;;;;1.25;1.13;;;21.00;44.70;20.10;100890.00;;;;5045443;28;20041;-66
2022/06/01 00:36:20;;;;;;;1.60;1.40;;;21.00;44.80;20.10;100893.00;;;;5038611;28;20391;-66
2022/06/01 00:39:06;;;;;;;1.80;1.70;;;21.00;44.80;20.10;100893.00;;;;5062075;28;20058;-66
2022/06/01 00:41:52;;;;;;;2.08;1.25;;;20.90;44.70;20.10;100892.00;;;;5057998;28;20323;-66
2022/06/01 00:44:39;;;;;;;1.65;1.35;;;20.90;44.80;20.10;100904.00;;;;5057347;28;20037;-66
2022/06/01 00:47:26;;;;;;;2.08;1.10;;;21.00;44.80;20.10;100894.00;;;;5071739;28;20071;-66
2022/06/01 00:50:17;;;;;;;1.83;1.50;;;20.90;44.80;20.10;100902.00;;;;5047435;28;20036;-66
2022/06/01 00:53:08;;;;;;;1.45;1.35;;;20.90;44.90;20.10;100893.00;;;;5038192;28;20051;-66
2022/06/01 00:56:02;;;;;;;1.42;1.30;;;20.90;44.90;20.10;100900.00;;;;5049200;28;20340;-66
2022/06/01 00:58:50;;;;;;;1.48;1.35;;;20.90;44.90;20.10;100890.00;;;;5046760;28;20032;-66
2022/06/01 01:01:36;;;;;;;1.40;1.23;;;20.90;44.90;20.10;100895.00;;;;5042852;28;20064;-66
2022/06/01 01:04:23;;;;;;;1.90;1.42;;;20.90;44.90;20.10;100894.00;;;;5060007;28;20037;-66
2022/06/01 01:07:12;;;;;;;1.60;1.23;;;20.90;45.00;20.10;100894.00;;;;5034415;28;20482;-65
2022/06/01 01:09:58;;;;;;;1.98;1.63;;;20.90;45.00;20.10;100898.00;;;;5058485;28;20499;-66
2022/06/01 01:12:56;;;;;;;1.38;1.27;;;20.90;45.00;20.10;100898.00;;;;5056404;28;20052;-66
2022/06/01 01:15:55;;;;;;;2.38;1.60;;;20.90;45.00;20.10;100898.00;;;;5066840;28;20487;-66
2022/06/01 01:18:43;;;;;;;;;;;20.90;45.10;20.00;100893.00;;;;5060805;28;20044;-66
2022/06/01 01:21:59;;;;;;;2.30;1.40;;;20.90;44.90;20.00;100888.00;;;;5067577;28;19923;-66
2022/06/01 01:25:28;;;;;;;1.67;1.30;;;20.90;45.00;20.00;100886.00;;;;5057004;28;20178;-66
2022/06/01 01:28:14;;;;;;;2.45;1.50;;;20.90;45.10;20.00;100897.00;;;;5060050;28;20065;-66
2022/06/01 01:31:33;;;;;;;2.90;1.55;;;20.90;45.10;20.00;100892.00;;;;5043871;28;20045;-66
2022/06/01 01:34:19;;;;;;;1.60;1.38;;;20.90;45.20;20.00;100892.00;;;;5040866;28;20421;-66
2022/06/01 01:37:11;;;;;;;2.05;1.55;;;20.90;45.20;20.00;100890.00;;;;5062770;28;20243;-66
2022/06/01 01:39:57;;;;;;;1.70;1.60;;;20.80;45.40;20.00;100887.00;;;;5044210;28;20410;-66
2022/06/01 01:42:45;;;;;;;2.13;1.52;;;20.90;45.30;20.00;100883.00;;;;5045413;28;20040;-66
2022/06/01 01:45:32;;;;;;;2.08;1.60;;;20.80;45.40;20.00;100885.00;;;;5054528;28;20041;-66
2022/06/01 01:48:18;;;;;;;3.83;1.73;;;20.80;45.40;20.00;100889.00;;;;5060040;28;20052;-66
2022/06/01 01:51:05;;;;;;;1.65;1.55;;;20.80;45.40;20.00;100888.00;;;;5062371;28;20127;-66
2022/06/01 01:53:53;;;;;;;1.92;1.42;;;20.90;45.50;20.00;100889.00;;;;5074114;28;20046;-66
2022/06/01 01:56:55;;;;;;;1.55;1.45;;;20.80;45.50;20.00;100889.00;;;;5038427;28;20501;-66
2022/06/01 02:00:09;;;;;;;1.90;1.60;;;20.90;45.50;20.00;100891.00;;;;5061698;28;20052;-66
2022/06/01 02:03:01;;;;;;;2.05;1.50;;;20.80;45.50;20.00;100889.00;;;;5051244;28;20379;-66
2022/06/01 02:06:12;;;;;;;2.72;1.40;;;20.80;45.50;20.00;100897.00;;;;5048789;28;20197;-66
2022/06/01 02:09:03;;;;;;;1.67;1.48;;;20.80;45.60;20.00;100890.00;;;;5058455;28;20437;-66
2022/06/01 02:14:56;;;;;;;1.67;1.33;;;20.80;45.60;20.00;100894.00;;;;5045491;28;20044;-66
2022/06/01 02:17:49;;;;;;;2.63;1.65;;;20.80;45.60;20.00;100891.00;;;;5044027;28;20053;-66
2022/06/01 02:20:46;;;;;;;1.35;1.25;;;20.80;45.70;20.00;100890.00;;;;5053200;28;20069;-66
2022/06/01 02:23:32;;;;;;;2.38;1.88;;;20.80;45.70;20.00;100894.00;;;;5053280;28;20048;-66
2022/06/01 02:26:18;;;;;;;2.08;1.77;;;20.80;45.60;20.00;100887.00;;;;5047689;28;20044;-66
2022/06/01 02:29:41;;;;;;;2.42;1.92;;;20.80;45.70;20.00;100890.00;;;;5047122;28;20489;-66
2022/06/01 02:32:28;;;;;;;2.15;1.70;;;20.80;45.70;20.00;100895.00;;;;5060570;28;20037;-66
2022/06/01 02:35:16;;;;;;;3.47;1.90;;;20.80;45.70;20.00;100895.00;;;;5047429;28;20051;-66
2022/06/01 02:38:05;;;;;;;1.77;1.67;;;20.80;45.70;20.00;100891.00;;;;5043816;28;20048;-66
2022/06/01 02:40:52;;;;;;;2.55;1.90;;;20.80;45.70;20.00;100888.00;;;;5066502;28;20567;-66
2022/06/01 02:43:50;;;;;;;1.95;1.80;;;20.80;45.80;20.00;100889.00;;;;5046195;28;20044;-66
2022/06/01 02:46:36;;;;;;;2.45;2.00;;;20.80;45.90;20.00;100895.00;;;;5064364;28;20051;-66
2022/06/01 02:49:23;;;;;;;1.75;1.63;;;20.80;45.80;20.00;100892.00;;;;5061416;28;20048;-66
2022/06/01 02:52:09;;;;;;;2.17;1.45;;;20.80;45.80;20.00;100895.00;;;;5062452;28;20044;-66
2022/06/01 02:54:55;;;;;;;2.05;1.70;;;20.80;45.90;20.00;100903.00;;;;5062673;28;20080;-66
2022/06/01 02:57:41;;;;;;;1.85;1.67;;;20.80;45.90;20.00;100910.00;;;;5050697;28;20101;-66
2022/06/01 03:00:37;;;;;;;2.03;1.63;;;20.80;45.90;20.00;100899.00;;;;5046320;28;20119;-66
2022/06/01 03:03:23;;;;;;;2.05;1.85;;;20.80;46.00;20.00;100903.00;;;;5049668;28;20036;-66
2022/06/01 03:06:09;;;;;;;1.77;1.67;;;20.80;46.00;20.00;100903.00;;;;5066383;28;20047;-66
2022/06/01 03:08:55;;;;;;;2.08;1.88;;;20.80;46.00;20.00;100908.00;;;;5053368;28;20070;-66
2022/06/01 03:11:41;;;;;;;1.98;1.77;;;20.80;46.00;20.00;100907.00;;;;5060322;28;20044;-66
2022/06/01 03:14:27;;;;;;;2.10;1.90;;;20.80;46.00;20.00;100914.00;;;;5058495;28;20478;-66
2022/06/01 03:17:13;;;;;;;2.75;2.08;;;20.80;46.00;20.00;100910.00;;;;5047043;28;20051;-66
2022/06/01 03:20:00;;;;;;;2.53;2.25;;;20.80;46.00;20.00;100914.00;;;;5059310;28;20094;-66
2022/06/01 03:22:46;;;;;;;2.85;1.90;;;20.80;46.00;20.00;100908.00;;;;5045890;28;20074;-66
2022/06/01 03:25:32;;;;;;;2.60;2.20;;;20.70;46.00;20.00;100918.00;;;;5075227;28;20137;-66
2022/06/01 03:28:18;;;;;;;3.58;2.22;;;20.80;46.00;19.90;100910.00;;;;5056883;28;20512;-66
2022/06/01 03:31:06;;;;;;;2.33;2.13;;;20.80;46.10;19.90;100912.00;;;;5048643;28;20036;-66
2022/06/01 03:33:52;;;;;;;3.40;1.92;;;20.80;46.10;20.00;100911.00;;;;5061229;28;20040;-66
2022/06/01 03:36:38;;;;;;;3.50;2.40;;;20.80;46.10;19.90;100910.00;;;;5065641;28;20493;-66
2022/06/01 03:39:24;;;;;;;2.15;1.92;;;20.80;46.10;19.90;100912.00;;;;5060097;28;20044;-66
2022/06/01 03:42:10;;;;;;;2.63;2.42;;;20.80;46.20;19.90;100907.00;;;;5059936;28;20140;-66
2022/06/01 03:48:01;;;;;;;2.70;2.22;;;20.80;46.20;19.90;100904.00;;;;5057796;28;20053;-66
2022/06/01 03:50:47;;;;;;;3.65;2.80;;;20.80;46.20;19.90;100908.00;;;;5041175;28;20041;-66
2022/06/01 03:53:33;;;;;;;3.20;2.35;;;20.70;46.20;19.90;100896.00;;;;5047566;28;20048;-66
2022/06/01 03:56:22;;;;;;;3.67;2.70;;;20.80;46.30;19.90;100894.00;;;;5049189;28;20051;-66
2022/06/01 03:59:08;;;;;;;2.83;2.63;;;20.70;46.20;19.90;100899.00;;;;5073597;28;20098;-66
2022/06/01 04:01:54;;;;;;;3.50;3.20;;;20.70;46.30;19.90;100898.00;;;;5066855;28;20040;-66
2022/06/01 04:04:40;;;;;;;4.68;3.03;;;20.70;46.30;19.90;100905.00;;;;5060322;28;20040;-66
2022/06/01 04:07:26;;;;;;;4.25;3.20;;;20.70;46.30;19.90;100914.00;;;;5059004;28;20037;-65
2022/06/01 04:10:12;;;;;;;6.10;3.47;;;20.70;46.30;19.90;100913.00;;;;5063414;28;20044;-66
2022/06/01 04:12:58;;;;;;;3.72;3.30;;;20.70;46.50;19.90;100915.00;;;;5047195;28;20087;-66
2022/06/01 04:15:45;;;;;;;4.03;3.70;;;20.70;46.40;19.90;100913.00;;;;5060525;28;20523;-66
2022/06/01 04:18:31;;;;;;;4.28;3.65;;;20.70;46.40;19.90;100924.00;;;;5041487;28;20049;-66
2022/06/01 04:21:20;;;;;;;3.58;3.28;;;20.70;46.40;19.90;100917.00;;;;5041348;28;20503;-66
2022/06/01 04:24:07;;;;;;;3.90;3.50;;;20.70;46.50;19.90;100918.00;;;;5039211;28;20068;-66
2022/06/01 04:26:53;;;;;;;4.13;3.78;;;20.70;46.50;19.90;100912.00;;;;5033300;28;20158;-66
2022/06/01 04:29:39;;;;;;;4.45;3.72;;;20.70;46.60;19.90;100917.00;;;;5039633;28;20474;-66
2022/06/01 04:32:28;;;;;;;6.10;4.10;;;20.70;46.60;19.90;100915.00;;;;5052951;28;20684;-66
2022/06/01 04:35:14;;;;;;;5.32;4.43;;;20.70;46.70;19.90;100917.00;;;;5032494;28;20115;-66
2022/06/01 04:38:12;;;;;;;4.85;4.35;;;20.70;46.70;19.90;100921.00;;;;5048600;28;20129;-66
2022/06/01 04:40:58;;;;;;;5.82;4.70;;;20.70;46.70;19.90;100919.00;;;;5043675;28;20088;-66
2022/06/01 04:43:45;;;;;;;5.60;5.00;;;20.70;46.70;19.90;100921.00;;;;5031154;28;20036;-66
2022/06/01 04:46:31;;;;;;;4.90;4.40;;;20.70;46.80;19.90;100922.00;;;;5045832;28;20102;-66
2022/06/01 04:49:17;;;;;;;4.63;4.22;;;20.70;46.80;19.80;100928.00;;;;5040610;28;20064;-66
2022/06/01 04:52:04;;;;;;;5.97;5.10;;;20.70;46.80;19.80;100927.00;;;;5047247;28;20032;-66
2022/06/01 04:54:50;;;;;;;5.43;4.70;;;20.70;46.90;19.80;100928.00;;;;5017508;28;20582;-66
2022/06/01 04:57:37;;;;;;;7.63;5.10;;;20.70;47.00;19.80;100927.00;;;;5063953;28;20365;-66
2022/06/01 05:00:23;;;;;;;5.85;5.15;;;20.70;47.10;19.80;100925.00;;;;5039764;28;20045;-66
2022/06/01 05:03:09;;;;;;;6.00;5.40;;;20.60;47.00;19.80;100929.00;;;;5041006;28;20055;-66
2022/06/01 05:05:55;;;;;;;4.80;4.30;;;20.60;47.10;19.80;100928.00;;;;5042762;28;20044;-66
2022/06/01 05:08:41;;;;;;;6.63;5.00;;;20.60;47.00;19.80;100932.00;;;;5045155;28;20045;-66
2022/06/01 05:11:27;;;;;;;5.57;5.07;;;20.60;47.00;19.80;100936.00;;;;5043036;28;20056;-66
2022/06/01 05:14:13;;;;;;;5.55;4.97;;;20.60;47.00;19.80;100932.00;;;;5042289;28;20041;-66
2022/06/01 05:17:00;;;;;;;5.10;4.38;;;20.60;47.00;19.80;100935.00;;;;5039761;28;20044;-66
2022/06/01 05:19:46;;;;;;;5.63;5.07;;;20.60;47.10;19.80;100933.00;;;;5037972;28;20203;-66
2022/06/01 05:22:33;;;;;;;6.05;5.45;;;20.60;47.00;19.80;100928.00;;;;5055860;28;20076;-66
2022/06/01 05:25:21;;;;;;;6.10;4.95;;;20.60;47.10;19.80;100928.00;;;;5032914;28;20048;-66
2022/06/01 05:28:07;;;;;;;5.28;4.75;;;20.60;47.00;19.80;100934.00;;;;5031771;28;20048;-66
2022/06/01 05:30:58;;;;;;;6.55;5.95;;;20.60;47.10;19.80;100936.00;;;;5057445;28;20036;-66
2022/06/01 05:33:44;;;;;;;6.30;5.43;;;20.60;47.20;19.80;100941.00;;;;5055297;28;20131;-66
2022/06/01 05:36:30;;;;;;;7.22;5.35;;;20.60;47.10;19.80;100935.00;;;;5061760;28;20049;-66
2022/06/01 05:39:16;;;;;;;5.50;4.97;;;20.60;47.20;19.80;100934.00;;;;5043232;28;20041;-66
2022/06/01 05:42:03;;;;;;;5.93;5.18;;;20.60;47.10;19.80;100938.00;;;;5047959;28;20033;-66
2022/06/01 05:44:49;;;;;;;6.35;5.75;;;20.60;47.20;19.80;100939.00;;;;5042538;28;20206;-66
2022/06/01 05:47:35;;;;;;;6.63;5.78;;;20.60;47.20;19.80;100946.00;;;;5059401;28;20103;-66
2022/06/01 05:50:21;;;;;;;5.82;5.13;;;20.60;47.20;19.80;100941.00;;;;5061281;28;20879;-66
2022/06/01 05:53:07;;;;;;;6.13;5.53;;;20.60;47.20;19.80;100945.00;;;;5059701;28;20037;-66
2022/06/01 05:55:53;;;;;;;6.28;5.68;;;20.60;47.10;19.80;100947.00;;;;5059377;28;20279;-66
2022/06/01 05:58:39;;;;;;;5.97;5.38;;;20.60;47.30;19.80;100942.00;;;;5058323;28;20071;-66
2022/06/01 06:01:25;;;;;;;6.72;5.90;;;20.50;47.20;19.80;100952.00;;;;5051249;28;20106;-66
2022/06/01 06:04:11;;;;;;;5.88;5.28;;;20.60;47.20;19.80;100949.00;;;;5059703;28;20037;-66
2022/06/01 06:06:57;;;;;;;6.55;5.85;;;20.60;47.30;19.80;100951.00;;;;5048246;28;20090;-66
2022/06/01 06:09:43;;;;;;;5.72;5.15;;;20.60;47.30;19.80;100954.00;;;;5062545;28;20041;-66
2022/06/01 06:12:29;;;;;;;6.57;5.43;;;20.70;47.40;19.80;100952.00;;;;5061121;28;20106;-66
2022/06/01 06:15:16;;;;;;;5.70;4.88;;;20.60;47.20;19.80;100957.00;;;;5065882;28;20047;-66
2022/06/01 06:18:02;;;;;;;5.00;4.50;;;20.60;47.40;19.80;100957.00;;;;5052660;28;20044;-66
2022/06/01 06:20:48;;;;;;;6.50;5.05;;;20.60;47.30;19.80;100954.00;;;;5048826;28;20239;-66
2022/06/01 06:23:34;;;;;;;5.90;4.85;;;20.60;47.30;19.80;100948.00;;;;5065327;28;20463;-66
2022/06/01 06:26:21;;;;;;;5.00;4.47;;;20.60;47.30;19.80;100958.00;;;;5046675;28;20135;-66
2022/06/01 06:29:08;;;;;;;5.82;4.45;;;20.60;47.40;19.80;100963.00;;;;5061977;28;20113;-66
2022/06/01 06:31:54;;;;;;;5.65;5.07;;;20.60;47.30;19.80;100954.00;;;;5047471;28;20052;-66
2022/06/01 06:34:40;;;;;;;6.38;5.25;;;20.60;47.30;19.80;100966.00;;;;5059679;28;20048;-66
2022/06/01 06:37:27;;;;;;;6.68;4.78;;;20.70;47.30;19.80;100957.00;;;;5065367;28;20040;-66
2022/06/01 06:40:13;;;;;;;7.32;5.50;;;20.60;47.40;19.80;100959.00;;;;5062781;28;20049;-66
2022/06/01 06:42:59;;;;;;;5.20;4.70;;;20.60;47.30;19.80;100960.00;;;;5049209;28;20048;-66
2022/06/01 06:45:49;;;;;;;4.88;4.47;;;20.60;47.30;19.80;100964.00;;;;5058763;28;20402;-66
2022/06/01 06:48:36;;;;;;;5.18;4.68;;;20.60;48.10;19.80;100963.00;;;;5047028;28;20407;-66
2022/06/01 06:51:22;;;;;;;6.45;5.07;;;20.70;47.30;19.80;100977.00;;;;5050376;28;20045;-66
2022/06/01 06:54:08;;;;;;;5.28;4.47;;;20.60;47.30;19.80;100968.00;;;;5047068;28;20048;-66
2022/06/01 06:56:54;;;;;;;5.75;4.78;;;20.60;47.40;19.80;100965.00;;;;5048131;28;20094;-66
2022/06/01 06:59:40;;;;;;;4.68;4.25;;;20.70;47.40;19.80;100976.00;;;;5048189;28;20052;-66
2022/06/01 07:02:26;;;;;;;5.13;4.63;;;20.60;47.30;19.80;100975.00;;;;5064379;28;20315;-66
2022/06/01 07:06:08;;;;;;;5.60;5.10;;;20.60;47.40;19.80;100974.00;;;;5062171;28;20041;-66
2022/06/01 07:08:18;;;;;;;6.43;4.97;;;20.70;47.30;19.80;100976.00;;;;5062779;28;20043;-66
2022/06/01 07:11:05;;;;;;;5.28;4.82;;;20.60;47.40;19.80;100979.00;;;;5046298;28;20055;-66
2022/06/01 07:13:51;;;;;;;5.28;4.78;;;20.70;47.30;19.80;100984.00;;;;5061173;28;20402;-66
2022/06/01 07:16:38;;;;;;;5.63;4.93;;;20.70;47.40;19.80;100987.00;;;;5063225;28;20049;-66
2022/06/01 07:19:24;;;;;;;4.53;4.13;;;20.70;47.30;19.80;100980.00;;;;5060834;28;20048;-66
2022/06/01 07:22:10;;;;;;;5.35;4.55;;;20.70;47.30;19.80;100986.00;;;;5049919;28;20114;-65
2022/06/01 07:24:56;;;;;;;5.13;4.47;;;20.70;47.50;19.80;100983.00;;;;5075246;28;20036;-66
2022/06/01 07:27:42;;;;;;;5.88;5.10;;;20.70;47.40;19.80;100993.00;;;;5065048;28;20482;-66
2022/06/01 07:30:29;;;;;;;5.80;4.82;;;20.70;47.40;19.80;100993.00;;;;5045943;28;20058;-66
2022/06/01 07:33:16;;;;;;;5.85;4.97;;;20.70;47.40;19.80;100992.00;;;;5054570;28;20369;-66
2022/06/01 07:36:05;;;;;;;6.88;5.38;;;20.70;47.40;19.80;100990.00;;;;5048608;28;20050;-66
2022/06/01 07:45:05;;;;;;;6.72;5.47;;;20.70;47.40;19.80;101008.00;;;;5045655;28;20333;-66
2022/06/01 07:47:51;;;;;;;6.88;5.70;;;20.70;47.40;19.80;101004.00;;;;5058310;28;20051;-66
2022/06/01 07:50:37;;;;;;;6.72;5.88;;;20.70;47.40;19.80;100994.00;;;;5062291;28;20071;-66
2022/06/01 07:53:23;;;;;;;8.18;6.63;;;20.80;47.40;19.80;100997.00;;;;5039782;28;20053;-65
2022/06/01 07:56:09;;;;;;;7.57;6.35;;;20.70;47.40;19.80;100999.00;;;;5046472;28;20409;-66
2022/06/01 07:58:55;;;;;;;8.10;6.80;;;20.70;47.40;19.80;100996.00;;;;5043183;28;20041;-66
2022/06/01 08:01:41;;;;;;;6.72;6.05;;;20.70;47.40;19.80;101003.00;;;;5044983;28;20044;-66
2022/06/01 08:04:30;;;;;;;7.20;6.53;;;20.70;47.50;19.80;100999.00;;;;5051130;28;20037;-66
2022/06/01 08:07:16;;;;;;;8.85;6.80;;;20.70;47.40;19.80;100991.00;;;;5038427;28;20109;-66
2022/06/01 08:10:03;;;;;;;8.25;6.32;;;20.70;47.40;19.80;100996.00;;;;5041547;28;20044;-66
2022/06/01 08:13:07;;;;;;;6.63;6.03;;;20.70;47.50;19.80;100999.00;;;;5058683;28;20048;-66
2022/06/01 08:15:55;;;;;;;7.20;6.35;;;20.70;47.50;19.80;101000.00;;;;5056561;28;20033;-66
2022/06/01 08:18:41;;;;;;;8.30;6.65;;;20.70;47.40;19.70;100997.00;;;;5044729;28;20045;-66
2022/06/01 08:21:27;;;;;;;8.68;7.50;;;20.70;47.20;19.70;100995.00;;;;5057829;28;20468;-66
2022/06/01 08:24:13;;;;;;;8.93;7.05;;;20.70;47.30;19.70;100996.00;;;;5035064;28;20418;-66
2022/06/01 08:26:59;;;;;;;7.93;6.20;;;20.70;47.40;19.70;100994.00;;;;5042554;28;20091;-66
2022/06/01 08:29:45;;;;;;;7.63;6.80;;;20.70;47.30;19.70;100989.00;;;;5041153;28;20116;-66
2022/06/01 08:32:31;;;;;;;7.05;5.95;;;20.60;47.20;19.70;100983.00;;;;5043380;28;20440;-66
2022/06/01 08:35:22;;;;;;;6.60;5.88;;;20.70;47.30;19.70;100985.00;;;;5047216;28;20455;-66
2022/06/01 08:38:08;;;;;;;7.97;6.47;;;20.70;47.50;19.70;100986.00;;;;5026984;28;20051;-66
2022/06/01 08:40:56;;;;;;;7.60;6.38;;;20.70;47.10;19.70;100980.00;;;;5046087;28;20075;-66
2022/06/01 08:43:51;;;;;;;6.30;5.70;;;20.70;47.10;19.70;100984.00;;;;5051630;28;20505;-66
2022/06/01 08:46:37;;;;;;;6.60;5.68;;;20.70;46.90;19.70;100985.00;;;;5043851;28;20487;-66
2022/06/01 08:49:30;;;;;;;6.35;5.47;;;20.70;46.80;19.70;100985.00;;;;5043459;28;20037;-66
2022/06/01 08:52:16;;;;;;;5.47;4.97;;;20.70;46.80;19.70;100981.00;;;;5037594;28;20557;-66
2022/06/01 08:55:02;;;;;;;5.18;4.68;;;20.70;47.10;19.70;100971.00;;;;5054847;28;20486;-65
2022/06/01 08:57:58;;;;;;;5.43;4.93;;;20.70;46.80;19.70;100973.00;;;;5056419;28;20068;-66
2022/06/01 09:00:52;;;;;;;4.90;4.35;;;20.70;46.70;19.70;100979.00;;;;5057057;28;20132;-66
2022/06/01 09:04:48;;;;;;;5.32;4.82;;;20.70;46.70;19.70;100980.00;;;;5041825;28;20052;-66
2022/06/01 09:08:02;;;;;;;5.40;4.30;;;20.70;46.80;19.70;100990.00;;;;5023641;28;20085;-66
2022/06/01 09:11:13;;;;;;;5.10;4.60;;;20.70;47.00;19.70;100986.00;;;;5056007;28;20433;-66
2022/06/01 09:14:16;;;;;;;4.18;3.78;;;20.70;46.70;19.60;100990.00;;;;5036249;28;20508;-66
2022/06/01 09:17:02;;;;;;;4.70;4.00;;;20.70;46.50;19.70;100989.00;;;;5055588;28;20041;-66
2022/06/01 09:22:53;;;;;;;3.80;3.47;;;20.70;46.80;19.70;100991.00;;;;5044577;28;20032;-66
2022/06/01 09:25:39;;;;;;;4.45;3.72;;;20.70;46.80;19.70;100996.00;;;;5038331;28;20041;-66
2022/06/01 09:28:27;;;;;;;5.47;3.83;;;20.70;47.10;19.70;100994.00;;;;5037739;28;20132;-66
2022/06/01 09:31:39;;;;;;;4.22;3.85;;;20.70;47.10;19.70;100992.00;;;;5050061;28;20041;-66
2022/06/01 09:34:37;;;;;;;3.85;3.10;;;20.70;47.10;19.70;100993.00;;;;5052912;28;20146;-66
2022/06/01 09:37:26;;;;;;;3.35;3.05;;;20.70;47.10;19.70;100996.00;;;;5050341;28;20049;-66
2022/06/01 09:40:32;;;;;;;4.00;3.60;;;20.70;47.10;19.70;100997.00;;;;5044193;28;20057;-66
2022/06/01 09:43:24;;;;;;;4.82;3.38;;;20.70;47.10;19.70;100993.00;;;;5058558;28;20112;-66
2022/06/01 09:46:10;;;;;;;4.40;3.58;;;20.70;46.90;19.70;100990.00;;;;5047813;28;20152;-66
2022/06/01 09:48:56;;;;;;;4.20;3.60;;;20.70;47.10;19.70;100987.00;;;;5028240;28;20037;-66
2022/06/01 09:51:42;;;;;;;3.58;3.20;;;20.70;46.80;19.70;100980.00;;;;5036458;28;20037;-66
2022/06/01 09:54:33;;;;;;;3.63;3.33;;;20.70;46.80;19.70;100981.00;;;;5056360;28;20045;-66
2022/06/01 09:57:32;;;;;;;3.85;3.38;;;20.80;47.00;19.70;100970.00;;;;5056659;28;20514;-66
2022/06/01 10:06:33;;;;;;;3.95;3.13;;;20.80;46.70;19.70;100973.00;;;;5043667;28;20036;-66
2022/06/01 10:09:23;;;;;;;5.22;3.25;;;20.80;46.80;19.70;100961.00;;;;5055735;28;20095;-66
2022/06/01 10:12:41;;;;;;;3.53;2.78;;;20.70;46.30;19.70;100974.00;;;;5028173;28;20041;-66
2022/06/01 10:15:46;;;;;;;3.60;3.17;;;20.80;46.20;19.70;100961.00;;;;5062810;28;20552;-66
2022/06/01 10:18:32;;;;;;;3.30;2.95;;;20.80;46.30;19.70;100960.00;;;;5040868;28;20047;-66
2022/06/01 10:21:22;;;;;;;3.55;2.72;;;20.80;46.30;19.70;100957.00;;;;5035412;28;20063;-66
2022/06/01 10:24:12;;;;;;;2.38;2.17;;;20.90;46.50;19.80;100972.00;;;;5055444;28;20039;-66
2022/06/01 10:27:01;;;;;;;3.58;2.40;;;20.80;46.30;19.80;100969.00;;;;5040901;28;20104;-66
2022/06/01 10:30:13;;;;;;;3.47;2.50;;;20.80;46.50;19.80;100960.00;;;;5062247;28;20170;-66
2022/06/01 10:33:14;;;;;;;2.60;2.03;;;20.80;46.30;19.80;100969.00;;;;5042244;28;20042;-66
2022/06/01 10:36:13;;;;;;;2.50;2.13;;;20.80;46.40;19.80;100958.00;;;;5055244;28;20128;-66
2022/06/01 10:39:26;;;;;;;2.22;1.88;;;20.80;46.20;19.80;100966.00;;;;5041552;28;20041;-66
2022/06/01 10:42:19;;;;;;;2.42;2.00;;;20.90;46.40;19.80;100965.00;;;;5051228;28;20095;-66
2022/06/01 10:45:12;;;;;;;2.42;2.05;;;20.90;46.40;19.80;100968.00;;;;5047655;28;20032;-65
2022/06/01 10:48:16;;;;;;;2.38;1.75;;;20.90;46.30;19.80;100966.00;;;;5047395;28;20373;-66
2022/06/01 10:51:26;;;;;;;1.75;1.50;;;20.90;46.30;19.80;100973.00;;;;5046983;28;20052;-65
2022/06/01 10:54:37;;;;;;;1.92;1.77;;;20.90;46.10;19.80;100974.00;;;;5047300;28;20055;-65
2022/06/01 10:57:23;;;;;;;2.63;1.75;;;20.90;46.30;19.80;100972.00;;;;5059335;28;20569;-65
2022/06/01 11:00:21;;;;;;;2.03;1.88;;;20.90;46.10;19.80;100982.00;;;;5054310;28;20037;-66
2022/06/01 11:03:22;;;;;;;;;;;20.90;46.10;19.80;100995.00;;;;5048637;28;20119;-66
2022/06/01 11:06:26;;;;;;;1.38;1.20;;;20.90;46.10;19.80;100997.00;;;;5050895;28;20143;-66
2022/06/01 11:09:31;;;;;;;2.10;1.40;;;20.90;46.00;19.80;101007.00;;;;5025593;28;20060;-66
2022/06/01 11:12:39;;;;;;;1.05;0.90;;;21.00;46.00;19.80;100994.00;;;;5065368;28;20048;-65
2022/06/01 11:15:52;;;;;;;0.90;0.90;;;20.90;45.90;19.90;100987.00;;;;5049806;28;20044;-66
2022/06/01 11:19:34;;;;;;;1.00;0.80;;;20.90;45.80;19.90;100984.00;;;;5046299;28;20044;-66
2022/06/01 11:22:47;;;;;;;0.52;0.50;;;20.90;45.70;19.90;100978.00;;;;5032117;28;20047;-65
2022/06/01 11:25:57;;;;;;;0.68;0.65;;;20.90;46.30;19.90;100983.00;;;;5061176;28;20042;-66
2022/06/01 11:29:10;;;;;;;0.82;0.55;;;21.00;45.70;19.90;100973.00;;;;5029352;28;20696;-66
2022/06/01 11:31:58;;;;;;;0.50;0.50;;;21.00;45.50;19.90;100971.00;;;;5050392;28;20060;-65
2022/06/01 11:35:25;;;;;;;0.55;0.55;;;20.90;45.40;19.90;100972.00;;;;5009584;28;20253;-66
2022/06/01 11:38:24;;;;;;;1.67;0.60;;;21.00;45.50;19.90;100964.00;;;;5031818;28;20073;-66
2022/06/01 11:41:24;;;;;;;0.52;0.43;;;21.00;45.40;19.90;100973.00;;;;5040052;28;20132;-66
2022/06/01 11:44:20;;;;;;;0.57;0.57;;;21.00;45.30;19.90;100977.00;;;;5048981;28;20040;-65
2022/06/01 11:47:18;;;;;;;0.93;0.60;;;21.00;45.30;20.00;100972.00;;;;5051821;28;20051;-66
2022/06/01 11:50:17;;;;;;;0.60;0.43;;;21.00;45.20;20.00;100971.00;;;;5029162;28;20843;-65
2022/06/01 11:53:11;;;;;;;0.75;0.60;;;21.10;45.10;20.00;100969.00;;;;5041706;28;20033;-65
2022/06/01 11:56:38;;;;;;;0.70;0.60;;;21.10;45.10;20.00;100981.00;;;;5057445;28;20048;-65
2022/06/01 11:59:27;;;;;;;0.60;0.40;;;21.10;45.10;20.00;100974.00;;;;5051884;28;20120;-66
2022/06/01 12:02:50;;;;;;;0.77;0.55;;;21.10;45.10;20.00;100978.00;;;;5045273;28;20124;-66
2022/06/01 12:05:40;;;;;;;0.57;0.57;;;21.10;45.10;20.00;100972.00;;;;5029413;28;20072;-65
2022/06/01 12:08:35;;;;;;;0.93;0.57;;;21.10;45.10;20.00;100984.00;;;;5046525;28;20041;-65
2022/06/01 12:11:39;;;;;;;1.02;0.77;;;21.20;45.10;20.00;100990.00;;;;5056221;28;20541;-66
2022/06/01 12:15:13;;;;;;;0.98;0.57;;;21.10;45.00;20.00;100998.00;;;;5037377;28;20170;-66
2022/06/01 12:18:19;;;;;;;0.73;0.50;;;21.20;45.00;20.00;101006.00;;;;5050998;28;20048;-66
2022/06/01 12:21:38;;;;;;;0.70;0.60;;;21.20;45.10;20.00;101018.00;;;;5033064;28;20099;-65
2022/06/01 12:30:47;;;;;;;0.60;0.50;;;21.20;45.00;20.00;101052.00;;;;5041924;28;20040;-65
2022/06/01 12:33:33;;;;;;;0.63;0.63;;;21.10;45.10;20.00;101051.00;;;;5022401;28;20510;-65
2022/06/01 12:36:19;;;;;;;0.70;0.43;;;21.20;45.20;20.00;101055.00;;;;5022042;28;20057;-66
2022/06/01 12:39:26;;;;;;;0.85;0.60;;;21.10;45.30;20.00;101065.00;;;;5027134;28;20596;-66
2022/06/01 12:42:32;;;;;;;1.33;1.02;;;21.10;45.40;20.00;101068.00;;;;5024892;28;20045;-66
2022/06/01 12:45:20;;;;;;;1.35;0.60;;;21.10;45.50;20.00;101071.00;;;;5044866;28;20041;-65
2022/06/01 12:48:19;;;;;;;0.40;0.32;;;21.10;45.60;20.00;101081.00;;;;5049562;28;20123;-66
2022/06/01 12:51:07;;;;;;;0.63;0.50;;;21.10;45.60;20.00;101082.00;;;;5049031;28;20458;-65
2022/06/01 12:53:53;;;;;;;0.50;0.40;;;21.10;45.80;20.00;101099.00;;;;5049227;28;20041;-65
2022/06/01 12:56:47;;;;;;;0.30;0.30;;;21.10;45.90;20.00;101114.00;;;;5031838;28;20111;-66
2022/06/01 12:59:38;;;;;;;1.30;0.50;;;21.10;46.10;20.00;101110.00;;;;5049268;28;20044;-65
2022/06/01 13:02:24;;;;;;;0.35;0.30;;;21.10;46.20;20.00;101124.00;;;;5048867;28;20489;-66